sensor_id;sensor_type;location;lat;lon;timestamp;pressure;altitude;pressure_sealevel;temperature
44429;BMP180;30134;47.866;-4.222;2023-01-08T00:02:05;100267.00;;;24.10
44429;BMP180;30134;47.866;-4.222;2023-01-08T00:04:31;100266.00;;;24.10
44429;BMP180;30134;47.866;-4.222;2023-01-08T00:06:57;100264.00;;;24.10
44429;BMP180;30134;47.866;-4.222;2023-01-08T00:09:23;100264.00;;;24.10
44429;BMP180;30134;47.866;-4.222;2023-01-08T00:11:49;100262.00;;;24.10
44429;BMP180;30134;47.866;-4.222;2023-01-08T00:14:15;100268.00;;;24.10
44429;BMP180;30134;47.866;-4.222;2023-01-08T00:16:41;100267.00;;;24.10
44429;BMP180;30134;47.866;-4.222;2023-01-08T00:19:07;100264.00;;;24.10
44429;BMP180;30134;47.866;-4.222;2023-01-08T00:21:33;100261.00;;;24.10
44429;BMP180;30134;47.866;-4.222;2023-01-08T00:23:59;100253.00;;;24.10
44429;BMP180;30134;47.866;-4.222;2023-01-08T00:26:25;100252.00;;;24.10
44429;BMP180;30134;47.866;-4.222;2023-01-08T00:28:51;100248.00;;;24.10
44429;BMP180;30134;47.866;-4.222;2023-01-08T00:31:17;100245.00;;;24.10
44429;BMP180;30134;47.866;-4.222;2023-01-08T00:33:43;100242.00;;;24.10
44429;BMP180;30134;47.866;-4.222;2023-01-08T00:36:11;100253.00;;;24.10
44429;BMP180;30134;47.866;-4.222;2023-01-08T00:38:37;100254.00;;;24.10
44429;BMP180;30134;47.866;-4.222;2023-01-08T00:41:03;100258.00;;;24.10
44429;BMP180;30134;47.866;-4.222;2023-01-08T00:43:29;100246.00;;;24.10
44429;BMP180;30134;47.866;-4.222;2023-01-08T00:45:55;100241.00;;;24.00
44429;BMP180;30134;47.866;-4.222;2023-01-08T00:48:21;100248.00;;;24.10
44429;BMP180;30134;47.866;-4.222;2023-01-08T00:50:48;100237.00;;;24.10
44429;BMP180;30134;47.866;-4.222;2023-01-08T00:53:14;100245.00;;;24.10
44429;BMP180;30134;47.866;-4.222;2023-01-08T00:55:40;100240.00;;;24.00
44429;BMP180;30134;47.866;-4.222;2023-01-08T00:58:06;100237.00;;;24.00
44429;BMP180;30134;47.866;-4.222;2023-01-08T01:00:32;100233.00;;;24.00
44429;BMP180;30134;47.866;-4.222;2023-01-08T01:02:58;100235.00;;;24.00
44429;BMP180;30134;47.866;-4.222;2023-01-08T01:05:23;100233.00;;;24.00
44429;BMP180;30134;47.866;-4.222;2023-01-08T01:07:49;100232.00;;;24.00
44429;BMP180;30134;47.866;-4.222;2023-01-08T01:10:16;100229.00;;;24.00
44429;BMP180;30134;47.866;-4.222;2023-01-08T01:12:42;100224.00;;;24.00
44429;BMP180;30134;47.866;-4.222;2023-01-08T01:15:10;100218.00;;;24.00
44429;BMP180;30134;47.866;-4.222;2023-01-08T01:17:37;100221.00;;;24.00
44429;BMP180;30134;47.866;-4.222;2023-01-08T01:20:05;100223.00;;;24.00
44429;BMP180;30134;47.866;-4.222;2023-01-08T01:22:31;100224.00;;;24.00
44429;BMP180;30134;47.866;-4.222;2023-01-08T01:24:57;100218.00;;;24.00
44429;BMP180;30134;47.866;-4.222;2023-01-08T01:27:24;100221.00;;;24.00
44429;BMP180;30134;47.866;-4.222;2023-01-08T01:29:51;100221.00;;;24.00
44429;BMP180;30134;47.866;-4.222;2023-01-08T01:32:17;100212.00;;;24.00
44429;BMP180;30134;47.866;-4.222;2023-01-08T01:34:43;100211.00;;;24.00
44429;BMP180;30134;47.866;-4.222;2023-01-08T01:37:13;100213.00;;;24.00
44429;BMP180;30134;47.866;-4.222;2023-01-08T01:39:40;100220.00;;;24.00
44429;BMP180;30134;47.866;-4.222;2023-01-08T01:42:16;100213.00;;;24.00
44429;BMP180;30134;47.866;-4.222;2023-01-08T01:45:02;100213.00;;;24.00
44429;BMP180;30134;47.866;-4.222;2023-01-08T01:47:37;100213.00;;;24.00
44429;BMP180;30134;47.866;-4.222;2023-01-08T01:52:44;100200.00;;;24.00
44429;BMP180;30134;47.866;-4.222;2023-01-08T01:55:11;100205.00;;;24.00
44429;BMP180;30134;47.866;-4.222;2023-01-08T01:57:38;100200.00;;;24.00
44429;BMP180;30134;47.866;-4.222;2023-01-08T02:00:06;100198.00;;;24.00
44429;BMP180;30134;47.866;-4.222;2023-01-08T02:02:33;100191.00;;;24.00
44429;BMP180;30134;47.866;-4.222;2023-01-08T02:05:00;100180.00;;;24.00
44429;BMP180;30134;47.866;-4.222;2023-01-08T02:07:45;100185.00;;;24.00
44429;BMP180;30134;47.866;-4.222;2023-01-08T02:10:19;100175.00;;;24.00
44429;BMP180;30134;47.866;-4.222;2023-01-08T02:12:52;100178.00;;;24.00
44429;BMP180;30134;47.866;-4.222;2023-01-08T02:18:09;100186.00;;;24.00
44429;BMP180;30134;47.866;-4.222;2023-01-08T02:20:53;100198.00;;;24.00
44429;BMP180;30134;47.866;-4.222;2023-01-08T02:26:15;100185.00;;;24.00
44429;BMP180;30134;47.866;-4.222;2023-01-08T02:28:48;100196.00;;;24.00
44429;BMP180;30134;47.866;-4.222;2023-01-08T02:31:16;100194.00;;;24.00
44429;BMP180;30134;47.866;-4.222;2023-01-08T02:33:42;100188.00;;;24.00
44429;BMP180;30134;47.866;-4.222;2023-01-08T02:39:15;100197.00;;;24.00
44429;BMP180;30134;47.866;-4.222;2023-01-08T02:47:45;100195.00;;;23.90
44429;BMP180;30134;47.866;-4.222;2023-01-08T02:50:30;100189.00;;;23.90
44429;BMP180;30134;47.866;-4.222;2023-01-08T02:53:02;100186.00;;;23.90
44429;BMP180;30134;47.866;-4.222;2023-01-08T02:55:29;100190.00;;;24.00
44429;BMP180;30134;47.866;-4.222;2023-01-08T02:57:57;100190.00;;;24.00
44429;BMP180;30134;47.866;-4.222;2023-01-08T03:00:23;100183.00;;;23.90
44429;BMP180;30134;47.866;-4.222;2023-01-08T03:02:50;100183.00;;;23.90
44429;BMP180;30134;47.866;-4.222;2023-01-08T03:05:23;100179.00;;;23.90
44429;BMP180;30134;47.866;-4.222;2023-01-08T03:07:49;100176.00;;;23.90
44429;BMP180;30134;47.866;-4.222;2023-01-08T03:10:16;100187.00;;;23.90
44429;BMP180;30134;47.866;-4.222;2023-01-08T03:12:52;100177.00;;;23.90
44429;BMP180;30134;47.866;-4.222;2023-01-08T03:15:34;100176.00;;;23.90
44429;BMP180;30134;47.866;-4.222;2023-01-08T03:18:06;100171.00;;;23.90
44429;BMP180;30134;47.866;-4.222;2023-01-08T03:20:35;100168.00;;;23.90
44429;BMP180;30134;47.866;-4.222;2023-01-08T03:23:01;100173.00;;;23.90
44429;BMP180;30134;47.866;-4.222;2023-01-08T03:25:30;100177.00;;;23.90
44429;BMP180;30134;47.866;-4.222;2023-01-08T03:27:58;100171.00;;;23.90
44429;BMP180;30134;47.866;-4.222;2023-01-08T03:30:26;100170.00;;;23.90
44429;BMP180;30134;47.866;-4.222;2023-01-08T03:32:53;100167.00;;;23.90
44429;BMP180;30134;47.866;-4.222;2023-01-08T03:35:22;100163.00;;;23.90
44429;BMP180;30134;47.866;-4.222;2023-01-08T03:37:53;100158.00;;;23.90
44429;BMP180;30134;47.866;-4.222;2023-01-08T03:40:23;100162.00;;;23.90
44429;BMP180;30134;47.866;-4.222;2023-01-08T03:42:50;100155.00;;;23.90
44429;BMP180;30134;47.866;-4.222;2023-01-08T03:45:16;100157.00;;;23.90
44429;BMP180;30134;47.866;-4.222;2023-01-08T03:47:42;100149.00;;;23.90
44429;BMP180;30134;47.866;-4.222;2023-01-08T03:50:11;100149.00;;;23.90
44429;BMP180;30134;47.866;-4.222;2023-01-08T03:52:41;100154.00;;;23.90
44429;BMP180;30134;47.866;-4.222;2023-01-08T03:55:08;100150.00;;;23.90
44429;BMP180;30134;47.866;-4.222;2023-01-08T03:57:34;100143.00;;;23.90
44429;BMP180;30134;47.866;-4.222;2023-01-08T03:59:59;100142.00;;;23.90
44429;BMP180;30134;47.866;-4.222;2023-01-08T04:02:25;100142.00;;;23.90
44429;BMP180;30134;47.866;-4.222;2023-01-08T04:04:51;100142.00;;;23.90
44429;BMP180;30134;47.866;-4.222;2023-01-08T04:07:17;100140.00;;;23.90
44429;BMP180;30134;47.866;-4.222;2023-01-08T04:09:43;100136.00;;;23.90
44429;BMP180;30134;47.866;-4.222;2023-01-08T04:12:09;100135.00;;;23.90
44429;BMP180;30134;47.866;-4.222;2023-01-08T04:14:35;100135.00;;;23.90
44429;BMP180;30134;47.866;-4.222;2023-01-08T04:17:00;100131.00;;;23.90
44429;BMP180;30134;47.866;-4.222;2023-01-08T04:19:26;100124.00;;;23.90
44429;BMP180;30134;47.866;-4.222;2023-01-08T04:21:52;100125.00;;;23.90
44429;BMP180;30134;47.866;-4.222;2023-01-08T04:24:18;100112.00;;;23.90
44429;BMP180;30134;47.866;-4.222;2023-01-08T04:26:44;100115.00;;;23.90
44429;BMP180;30134;47.866;-4.222;2023-01-08T04:29:11;100107.00;;;23.90
44429;BMP180;30134;47.866;-4.222;2023-01-08T04:31:38;100108.00;;;23.90
44429;BMP180;30134;47.866;-4.222;2023-01-08T04:34:03;100104.00;;;23.90
44429;BMP180;30134;47.866;-4.222;2023-01-08T04:36:29;100100.00;;;23.90
44429;BMP180;30134;47.866;-4.222;2023-01-08T04:38:55;100097.00;;;23.90
44429;BMP180;30134;47.866;-4.222;2023-01-08T04:41:21;100093.00;;;23.90
44429;BMP180;30134;47.866;-4.222;2023-01-08T04:43:47;100088.00;;;23.90
44429;BMP180;30134;47.866;-4.222;2023-01-08T04:46:13;100088.00;;;23.90
44429;BMP180;30134;47.866;-4.222;2023-01-08T04:48:40;100085.00;;;23.90
44429;BMP180;30134;47.866;-4.222;2023-01-08T04:51:05;100087.00;;;23.90
44429;BMP180;30134;47.866;-4.222;2023-01-08T04:53:35;100125.00;;;23.90
44429;BMP180;30134;47.866;-4.222;2023-01-08T04:56:11;100076.00;;;23.90
44429;BMP180;30134;47.866;-4.222;2023-01-08T04:58:38;100068.00;;;23.90
44429;BMP180;30134;47.866;-4.222;2023-01-08T05:01:21;100073.00;;;23.90
44429;BMP180;30134;47.866;-4.222;2023-01-08T05:03:51;100070.00;;;23.80
44429;BMP180;30134;47.866;-4.222;2023-01-08T05:06:17;100065.00;;;23.90
44429;BMP180;30134;47.866;-4.222;2023-01-08T05:08:43;100055.00;;;23.90
44429;BMP180;30134;47.866;-4.222;2023-01-08T05:11:09;100054.00;;;23.80
44429;BMP180;30134;47.866;-4.222;2023-01-08T05:13:35;100053.00;;;23.80
44429;BMP180;30134;47.866;-4.222;2023-01-08T05:16:01;100044.00;;;23.80
44429;BMP180;30134;47.866;-4.222;2023-01-08T05:18:27;100040.00;;;23.80
44429;BMP180;30134;47.866;-4.222;2023-01-08T05:20:54;100035.00;;;23.90
44429;BMP180;30134;47.866;-4.222;2023-01-08T05:23:20;100031.00;;;23.80
44429;BMP180;30134;47.866;-4.222;2023-01-08T05:25:46;100032.00;;;23.80
44429;BMP180;30134;47.866;-4.222;2023-01-08T05:28:11;100028.00;;;23.80
44429;BMP180;30134;47.866;-4.222;2023-01-08T05:30:37;100024.00;;;23.80
44429;BMP180;30134;47.866;-4.222;2023-01-08T05:33:03;100020.00;;;23.80
44429;BMP180;30134;47.866;-4.222;2023-01-08T05:35:29;100017.00;;;23.80
44429;BMP180;30134;47.866;-4.222;2023-01-08T05:37:57;100025.00;;;23.80
44429;BMP180;30134;47.866;-4.222;2023-01-08T05:40:23;100028.00;;;23.80
44429;BMP180;30134;47.866;-4.222;2023-01-08T05:42:49;100032.00;;;23.80
44429;BMP180;30134;47.866;-4.222;2023-01-08T05:45:15;100018.00;;;23.80
44429;BMP180;30134;47.866;-4.222;2023-01-08T05:47:41;100015.00;;;23.80
44429;BMP180;30134;47.866;-4.222;2023-01-08T05:50:07;100004.00;;;23.80
44429;BMP180;30134;47.866;-4.222;2023-01-08T05:52:33;100009.00;;;23.80
44429;BMP180;30134;47.866;-4.222;2023-01-08T05:54:59;100010.00;;;23.80
44429;BMP180;30134;47.866;-4.222;2023-01-08T05:57:25;100012.00;;;23.80
44429;BMP180;30134;47.866;-4.222;2023-01-08T05:59:51;100004.00;;;23.80
44429;BMP180;30134;47.866;-4.222;2023-01-08T06:02:17;100002.00;;;23.80
44429;BMP180;30134;47.866;-4.222;2023-01-08T06:04:43;100004.00;;;23.80
44429;BMP180;30134;47.866;-4.222;2023-01-08T06:07:08;100001.00;;;23.80
44429;BMP180;30134;47.866;-4.222;2023-01-08T06:09:34;100002.00;;;23.80
44429;BMP180;30134;47.866;-4.222;2023-01-08T06:12:00;100008.00;;;23.80
44429;BMP180;30134;47.866;-4.222;2023-01-08T06:14:26;100015.00;;;23.80
44429;BMP180;30134;47.866;-4.222;2023-01-08T06:16:52;100002.00;;;23.80
44429;BMP180;30134;47.866;-4.222;2023-01-08T06:19:30;99991.00;;;23.80
44429;BMP180;30134;47.866;-4.222;2023-01-08T06:21:56;99990.00;;;23.80
44429;BMP180;30134;47.866;-4.222;2023-01-08T06:24:22;99973.00;;;23.80
44429;BMP180;30134;47.866;-4.222;2023-01-08T06:26:48;99973.00;;;23.80
44429;BMP180;30134;47.866;-4.222;2023-01-08T06:29:13;99974.00;;;23.80
44429;BMP180;30134;47.866;-4.222;2023-01-08T06:31:39;99977.00;;;23.80
44429;BMP180;30134;47.866;-4.222;2023-01-08T06:34:05;99961.00;;;23.80
44429;BMP180;30134;47.866;-4.222;2023-01-08T06:36:33;99968.00;;;23.80
44429;BMP180;30134;47.866;-4.222;2023-01-08T06:38:59;99969.00;;;23.80
44429;BMP180;30134;47.866;-4.222;2023-01-08T06:41:25;99956.00;;;23.80
44429;BMP180;30134;47.866;-4.222;2023-01-08T06:43:51;99964.00;;;23.80
44429;BMP180;30134;47.866;-4.222;2023-01-08T06:46:17;99956.00;;;23.80
44429;BMP180;30134;47.866;-4.222;2023-01-08T06:48:43;99956.00;;;23.80
44429;BMP180;30134;47.866;-4.222;2023-01-08T06:51:09;99955.00;;;23.80
44429;BMP180;30134;47.866;-4.222;2023-01-08T06:53:34;99948.00;;;23.80
44429;BMP180;30134;47.866;-4.222;2023-01-08T06:56:02;99953.00;;;23.80
44429;BMP180;30134;47.866;-4.222;2023-01-08T06:58:28;99948.00;;;23.80
44429;BMP180;30134;47.866;-4.222;2023-01-08T07:00:54;99954.00;;;23.80
44429;BMP180;30134;47.866;-4.222;2023-01-08T07:03:23;99952.00;;;23.80
44429;BMP180;30134;47.866;-4.222;2023-01-08T07:05:49;99950.00;;;23.80
44429;BMP180;30134;47.866;-4.222;2023-01-08T07:08:16;99950.00;;;23.80
44429;BMP180;30134;47.866;-4.222;2023-01-08T07:10:42;99934.00;;;23.80
44429;BMP180;30134;47.866;-4.222;2023-01-08T07:13:08;99937.00;;;23.80
44429;BMP180;30134;47.866;-4.222;2023-01-08T07:15:38;99940.00;;;23.80
44429;BMP180;30134;47.866;-4.222;2023-01-08T07:18:05;99930.00;;;23.80
44429;BMP180;30134;47.866;-4.222;2023-01-08T07:20:32;99919.00;;;23.80
44429;BMP180;30134;47.866;-4.222;2023-01-08T07:23:01;99913.00;;;23.80
44429;BMP180;30134;47.866;-4.222;2023-01-08T07:25:27;99912.00;;;23.80
44429;BMP180;30134;47.866;-4.222;2023-01-08T07:27:53;99915.00;;;23.80
44429;BMP180;30134;47.866;-4.222;2023-01-08T07:30:19;99911.00;;;23.80
44429;BMP180;30134;47.866;-4.222;2023-01-08T07:32:45;99906.00;;;23.80
44429;BMP180;30134;47.866;-4.222;2023-01-08T07:35:11;99903.00;;;23.80
44429;BMP180;30134;47.866;-4.222;2023-01-08T07:37:40;99900.00;;;23.80
44429;BMP180;30134;47.866;-4.222;2023-01-08T07:40:08;99902.00;;;23.80
44429;BMP180;30134;47.866;-4.222;2023-01-08T07:42:34;99898.00;;;23.80
44429;BMP180;30134;47.866;-4.222;2023-01-08T07:45:00;99895.00;;;23.80
44429;BMP180;30134;47.866;-4.222;2023-01-08T07:47:25;99894.00;;;23.80
44429;BMP180;30134;47.866;-4.222;2023-01-08T07:49:51;99890.00;;;23.80
44429;BMP180;30134;47.866;-4.222;2023-01-08T07:52:17;99873.00;;;23.80
44429;BMP180;30134;47.866;-4.222;2023-01-08T07:54:43;99885.00;;;23.80
44429;BMP180;30134;47.866;-4.222;2023-01-08T07:57:09;99891.00;;;23.80
44429;BMP180;30134;47.866;-4.222;2023-01-08T07:59:35;99888.00;;;23.80
44429;BMP180;30134;47.866;-4.222;2023-01-08T08:02:01;99885.00;;;23.80
44429;BMP180;30134;47.866;-4.222;2023-01-08T08:04:27;99899.00;;;23.80
44429;BMP180;30134;47.866;-4.222;2023-01-08T08:06:59;99887.00;;;23.80
44429;BMP180;30134;47.866;-4.222;2023-01-08T08:09:25;99899.00;;;23.80
44429;BMP180;30134;47.866;-4.222;2023-01-08T08:11:51;99898.00;;;23.80
44429;BMP180;30134;47.866;-4.222;2023-01-08T08:14:17;99912.00;;;23.70
44429;BMP180;30134;47.866;-4.222;2023-01-08T08:16:43;99903.00;;;23.80
44429;BMP180;30134;47.866;-4.222;2023-01-08T08:19:10;99898.00;;;23.70
44429;BMP180;30134;47.866;-4.222;2023-01-08T08:21:37;99889.00;;;23.70
44429;BMP180;30134;47.866;-4.222;2023-01-08T08:24:03;99894.00;;;23.70
44429;BMP180;30134;47.866;-4.222;2023-01-08T08:26:29;99886.00;;;23.70
44429;BMP180;30134;47.866;-4.222;2023-01-08T08:28:55;99879.00;;;23.70
44429;BMP180;30134;47.866;-4.222;2023-01-08T08:31:21;99875.00;;;23.70
44429;BMP180;30134;47.866;-4.222;2023-01-08T08:33:47;99881.00;;;23.70
44429;BMP180;30134;47.866;-4.222;2023-01-08T08:36:12;99881.00;;;23.70
44429;BMP180;30134;47.866;-4.222;2023-01-08T08:38:38;99886.00;;;23.70
44429;BMP180;30134;47.866;-4.222;2023-01-08T08:41:05;99874.00;;;23.70
44429;BMP180;30134;47.866;-4.222;2023-01-08T08:43:30;99876.00;;;23.70
44429;BMP180;30134;47.866;-4.222;2023-01-08T08:45:56;99872.00;;;23.70
44429;BMP180;30134;47.866;-4.222;2023-01-08T08:48:23;99864.00;;;23.70
44429;BMP180;30134;47.866;-4.222;2023-01-08T08:50:49;99860.00;;;23.70
44429;BMP180;30134;47.866;-4.222;2023-01-08T08:53:15;99857.00;;;23.70
44429;BMP180;30134;47.866;-4.222;2023-01-08T08:55:41;99871.00;;;23.70
44429;BMP180;30134;47.866;-4.222;2023-01-08T08:58:09;99877.00;;;23.70
44429;BMP180;30134;47.866;-4.222;2023-01-08T09:00:39;99875.00;;;23.70
44429;BMP180;30134;47.866;-4.222;2023-01-08T09:03:05;99866.00;;;23.70
44429;BMP180;30134;47.866;-4.222;2023-01-08T09:05:35;99868.00;;;23.70
44429;BMP180;30134;47.866;-4.222;2023-01-08T09:08:01;99859.00;;;23.70
44429;BMP180;30134;47.866;-4.222;2023-01-08T09:10:26;99858.00;;;23.70
44429;BMP180;30134;47.866;-4.222;2023-01-08T09:12:53;99867.00;;;23.70
44429;BMP180;30134;47.866;-4.222;2023-01-08T09:15:19;99856.00;;;23.70
44429;BMP180;30134;47.866;-4.222;2023-01-08T09:17:51;99850.00;;;23.70
44429;BMP180;30134;47.866;-4.222;2023-01-08T09:20:17;99848.00;;;23.70
44429;BMP180;30134;47.866;-4.222;2023-01-08T09:22:43;99856.00;;;23.70
44429;BMP180;30134;47.866;-4.222;2023-01-08T09:25:09;99865.00;;;23.70
44429;BMP180;30134;47.866;-4.222;2023-01-08T09:27:35;99848.00;;;23.70
44429;BMP180;30134;47.866;-4.222;2023-01-08T09:30:01;99854.00;;;23.70
44429;BMP180;30134;47.866;-4.222;2023-01-08T09:32:27;99852.00;;;23.70
44429;BMP180;30134;47.866;-4.222;2023-01-08T09:34:53;99838.00;;;23.70
44429;BMP180;30134;47.866;-4.222;2023-01-08T09:37:18;99838.00;;;23.70
44429;BMP180;30134;47.866;-4.222;2023-01-08T09:39:44;99829.00;;;23.70
44429;BMP180;30134;47.866;-4.222;2023-01-08T09:42:10;99832.00;;;23.70
44429;BMP180;30134;47.866;-4.222;2023-01-08T09:44:38;99825.00;;;23.70
44429;BMP180;30134;47.866;-4.222;2023-01-08T09:47:13;99836.00;;;23.70
44429;BMP180;30134;47.866;-4.222;2023-01-08T09:49:44;99817.00;;;23.70
44429;BMP180;30134;47.866;-4.222;2023-01-08T09:52:12;99819.00;;;23.70
44429;BMP180;30134;47.866;-4.222;2023-01-08T09:54:42;99818.00;;;23.70
44429;BMP180;30134;47.866;-4.222;2023-01-08T09:57:16;99821.00;;;23.70
44429;BMP180;30134;47.866;-4.222;2023-01-08T09:59:42;99806.00;;;23.70
44429;BMP180;30134;47.866;-4.222;2023-01-08T10:02:22;99809.00;;;23.70
44429;BMP180;30134;47.866;-4.222;2023-01-08T10:05:00;99793.00;;;23.70
44429;BMP180;30134;47.866;-4.222;2023-01-08T10:07:27;99795.00;;;23.70
44429;BMP180;30134;47.866;-4.222;2023-01-08T10:09:55;99794.00;;;23.70
44429;BMP180;30134;47.866;-4.222;2023-01-08T10:12:28;99802.00;;;23.70
44429;BMP180;30134;47.866;-4.222;2023-01-08T10:14:58;99800.00;;;23.70
44429;BMP180;30134;47.866;-4.222;2023-01-08T10:19:50;99788.00;;;23.70
44429;BMP180;30134;47.866;-4.222;2023-01-08T10:22:22;99795.00;;;23.70
44429;BMP180;30134;47.866;-4.222;2023-01-08T10:24:48;99823.00;;;23.70
44429;BMP180;30134;47.866;-4.222;2023-01-08T10:29:42;99808.00;;;23.70
44429;BMP180;30134;47.866;-4.222;2023-01-08T10:32:19;99808.00;;;23.70
44429;BMP180;30134;47.866;-4.222;2023-01-08T10:34:51;99797.00;;;23.70
44429;BMP180;30134;47.866;-4.222;2023-01-08T10:37:24;99799.00;;;23.70
44429;BMP180;30134;47.866;-4.222;2023-01-08T10:39:53;99805.00;;;23.70
44429;BMP180;30134;47.866;-4.222;2023-01-08T10:42:20;99808.00;;;23.70
44429;BMP180;30134;47.866;-4.222;2023-01-08T10:45:01;99798.00;;;23.70
44429;BMP180;30134;47.866;-4.222;2023-01-08T10:47:29;99787.00;;;23.70
44429;BMP180;30134;47.866;-4.222;2023-01-08T10:49:55;99780.00;;;23.70
44429;BMP180;30134;47.866;-4.222;2023-01-08T10:52:33;99785.00;;;23.70
44429;BMP180;30134;47.866;-4.222;2023-01-08T10:55:24;99779.00;;;23.70
44429;BMP180;30134;47.866;-4.222;2023-01-08T10:57:58;99784.00;;;23.70
44429;BMP180;30134;47.866;-4.222;2023-01-08T11:00:28;99776.00;;;23.70
44429;BMP180;30134;47.866;-4.222;2023-01-08T11:02:59;99778.00;;;23.70
44429;BMP180;30134;47.866;-4.222;2023-01-08T11:05:40;99778.00;;;23.70
44429;BMP180;30134;47.866;-4.222;2023-01-08T11:08:18;99765.00;;;23.70
44429;BMP180;30134;47.866;-4.222;2023-01-08T11:11:04;99763.00;;;23.70
44429;BMP180;30134;47.866;-4.222;2023-01-08T11:13:31;99764.00;;;23.70
44429;BMP180;30134;47.866;-4.222;2023-01-08T11:16:13;99765.00;;;23.70
44429;BMP180;30134;47.866;-4.222;2023-01-08T11:18:46;99752.00;;;23.70
44429;BMP180;30134;47.866;-4.222;2023-01-08T11:21:24;99748.00;;;23.50
44429;BMP180;30134;47.866;-4.222;2023-01-08T11:24:21;99745.00;;;23.40
44429;BMP180;30134;47.866;-4.222;2023-01-08T11:27:15;99746.00;;;23.40
44429;BMP180;30134;47.866;-4.222;2023-01-08T11:37:58;99763.00;;;23.40
44429;BMP180;30134;47.866;-4.222;2023-01-08T11:51:48;99758.00;;;23.40
44429;BMP180;30134;47.866;-4.222;2023-01-08T11:57:23;99755.00;;;23.40
44429;BMP180;30134;47.866;-4.222;2023-01-08T12:08:07;99731.00;;;23.40
44429;BMP180;30134;47.866;-4.222;2023-01-08T12:21:31;99696.00;;;23.50
44429;BMP180;30134;47.866;-4.222;2023-01-08T12:25:19;99708.00;;;23.50
44429;BMP180;30134;47.866;-4.222;2023-01-08T12:36:19;99688.00;;;23.50
44429;BMP180;30134;47.866;-4.222;2023-01-08T12:38:59;99685.00;;;23.50
44429;BMP180;30134;47.866;-4.222;2023-01-08T12:41:26;99674.00;;;23.50
44429;BMP180;30134;47.866;-4.222;2023-01-08T12:43:57;99689.00;;;23.50
44429;BMP180;30134;47.866;-4.222;2023-01-08T12:46:26;99719.00;;;23.50
44429;BMP180;30134;47.866;-4.222;2023-01-08T12:48:52;99751.00;;;23.50
44429;BMP180;30134;47.866;-4.222;2023-01-08T13:04:49;99710.00;;;23.50
44429;BMP180;30134;47.866;-4.222;2023-01-08T13:07:23;99702.00;;;23.50
44429;BMP180;30134;47.866;-4.222;2023-01-08T13:09:55;99693.00;;;23.50
44429;BMP180;30134;47.866;-4.222;2023-01-08T13:12:31;99675.00;;;23.50
44429;BMP180;30134;47.866;-4.222;2023-01-08T13:14:57;99670.00;;;23.50
44429;BMP180;30134;47.866;-4.222;2023-01-08T13:17:23;99663.00;;;23.50
44429;BMP180;30134;47.866;-4.222;2023-01-08T13:20:01;99668.00;;;23.50
44429;BMP180;30134;47.866;-4.222;2023-01-08T13:22:34;99676.00;;;23.50
44429;BMP180;30134;47.866;-4.222;2023-01-08T13:25:30;99668.00;;;23.50
44429;BMP180;30134;47.866;-4.222;2023-01-08T13:27:58;99651.00;;;23.50
44429;BMP180;30134;47.866;-4.222;2023-01-08T13:32:57;99671.00;;;23.50
44429;BMP180;30134;47.866;-4.222;2023-01-08T13:35:28;99671.00;;;23.50
44429;BMP180;30134;47.866;-4.222;2023-01-08T13:38:12;99661.00;;;23.50
44429;BMP180;30134;47.866;-4.222;2023-01-08T13:43:18;99674.00;;;23.50
44429;BMP180;30134;47.866;-4.222;2023-01-08T13:48:39;99688.00;;;23.50
44429;BMP180;30134;47.866;-4.222;2023-01-08T13:51:40;99690.00;;;23.40
44429;BMP180;30134;47.866;-4.222;2023-01-08T13:56:44;99674.00;;;23.40
44429;BMP180;30134;47.866;-4.222;2023-01-08T13:59:36;99685.00;;;23.40
44429;BMP180;30134;47.866;-4.222;2023-01-08T14:02:03;99687.00;;;23.40
44429;BMP180;30134;47.866;-4.222;2023-01-08T14:04:29;99686.00;;;23.40
44429;BMP180;30134;47.866;-4.222;2023-01-08T14:07:11;99695.00;;;23.40
44429;BMP180;30134;47.866;-4.222;2023-01-08T14:09:37;99691.00;;;23.40
44429;BMP180;30134;47.866;-4.222;2023-01-08T14:12:03;99664.00;;;23.40
44429;BMP180;30134;47.866;-4.222;2023-01-08T14:14:29;99665.00;;;23.30
44429;BMP180;30134;47.866;-4.222;2023-01-08T14:16:55;99669.00;;;23.30
44429;BMP180;30134;47.866;-4.222;2023-01-08T14:19:23;99691.00;;;23.30
44429;BMP180;30134;47.866;-4.222;2023-01-08T14:21:54;99691.00;;;23.30
44429;BMP180;30134;47.866;-4.222;2023-01-08T14:24:22;99694.00;;;23.30
44429;BMP180;30134;47.866;-4.222;2023-01-08T14:26:58;99692.00;;;23.30
44429;BMP180;30134;47.866;-4.222;2023-01-08T14:29:26;99686.00;;;23.30
44429;BMP180;30134;47.866;-4.222;2023-01-08T14:31:54;99692.00;;;23.30
44429;BMP180;30134;47.866;-4.222;2023-01-08T14:34:21;99690.00;;;23.30
44429;BMP180;30134;47.866;-4.222;2023-01-08T14:36:52;99678.00;;;23.30
44429;BMP180;30134;47.866;-4.222;2023-01-08T14:41:55;99680.00;;;23.30
44429;BMP180;30134;47.866;-4.222;2023-01-08T14:44:43;99688.00;;;23.30
44429;BMP180;30134;47.866;-4.222;2023-01-08T14:47:17;99677.00;;;23.30
44429;BMP180;30134;47.866;-4.222;2023-01-08T14:49:48;99695.00;;;23.30
44429;BMP180;30134;47.866;-4.222;2023-01-08T14:52:15;99716.00;;;23.30
44429;BMP180;30134;47.866;-4.222;2023-01-08T14:54:43;99718.00;;;23.20
44429;BMP180;30134;47.866;-4.222;2023-01-08T14:57:10;99709.00;;;23.20
44429;BMP180;30134;47.866;-4.222;2023-01-08T14:59:36;99718.00;;;23.20
44429;BMP180;30134;47.866;-4.222;2023-01-08T15:02:03;99716.00;;;23.20
44429;BMP180;30134;47.866;-4.222;2023-01-08T15:04:29;99726.00;;;23.20
44429;BMP180;30134;47.866;-4.222;2023-01-08T15:07:24;99741.00;;;23.20
44429;BMP180;30134;47.866;-4.222;2023-01-08T15:09:58;99738.00;;;23.20
44429;BMP180;30134;47.866;-4.222;2023-01-08T15:12:26;99733.00;;;23.20
44429;BMP180;30134;47.866;-4.222;2023-01-08T15:14:52;99751.00;;;23.20
44429;BMP180;30134;47.866;-4.222;2023-01-08T15:17:21;99750.00;;;23.20
44429;BMP180;30134;47.866;-4.222;2023-01-08T15:19:54;99756.00;;;23.20
44429;BMP180;30134;47.866;-4.222;2023-01-08T15:22:23;99754.00;;;23.20
44429;BMP180;30134;47.866;-4.222;2023-01-08T15:24:57;99754.00;;;23.20
44429;BMP180;30134;47.866;-4.222;2023-01-08T15:27:24;99745.00;;;23.20
44429;BMP180;30134;47.866;-4.222;2023-01-08T15:29:52;99745.00;;;23.20
44429;BMP180;30134;47.866;-4.222;2023-01-08T15:32:30;99751.00;;;23.20
44429;BMP180;30134;47.866;-4.222;2023-01-08T15:34:58;99753.00;;;23.20
44429;BMP180;30134;47.866;-4.222;2023-01-08T15:37:24;99767.00;;;23.20
44429;BMP180;30134;47.866;-4.222;2023-01-08T15:39:50;99761.00;;;23.20
44429;BMP180;30134;47.866;-4.222;2023-01-08T15:45:19;99776.00;;;23.20